createdAt,value
2023-02-05T00:00:11.603Z,7.00
2023-02-05T00:01:11.588Z,8.00
2023-02-05T00:02:11.595Z,8.20
2023-02-05T00:03:11.573Z,5.70
2023-02-05T00:04:11.565Z,6.60
2023-02-05T00:05:11.544Z,4.80
2023-02-05T00:06:11.535Z,5.60
2023-02-05T00:07:11.526Z,6.00
2023-02-05T00:08:11.516Z,6.60
2023-02-05T00:09:11.481Z,7.10
2023-02-05T00:10:11.483Z,5.50
2023-02-05T00:11:11.463Z,5.30
2023-02-05T00:12:11.477Z,4.80
2023-02-05T00:13:11.452Z,5.50
2023-02-05T00:14:11.430Z,5.90
2023-02-05T00:15:11.411Z,6.40
2023-02-05T00:16:11.444Z,6.40
2023-02-05T00:17:11.379Z,5.10
2023-02-05T00:18:11.389Z,5.20
2023-02-05T00:19:11.358Z,5.70
2023-02-05T00:20:11.346Z,6.00
2023-02-05T00:21:11.343Z,6.30
2023-02-05T00:22:11.333Z,5.60
2023-02-05T00:23:11.332Z,4.50
2023-02-05T00:24:11.300Z,4.30
2023-02-05T00:25:11.300Z,5.40
2023-02-05T00:26:11.278Z,4.80
2023-02-05T00:27:11.260Z,6.40
2023-02-05T00:28:11.334Z,6.10
2023-02-05T00:29:11.241Z,6.00
2023-02-05T00:30:11.225Z,6.30
2023-02-05T00:31:11.247Z,5.40
2023-02-05T00:32:11.196Z,5.10
2023-02-05T00:33:11.202Z,6.40
2023-02-05T00:34:11.175Z,5.10
2023-02-05T00:35:11.152Z,4.40
2023-02-05T00:36:12.790Z,4.30
2023-02-05T00:37:11.135Z,6.10
2023-02-05T00:38:11.123Z,3.90
2023-02-05T00:39:11.123Z,4.50
2023-02-05T00:40:11.092Z,4.70
2023-02-05T00:41:11.089Z,3.40
2023-02-05T00:42:11.062Z,6.70
2023-02-05T00:43:11.065Z,5.20
2023-02-05T00:44:11.056Z,5.10
2023-02-05T00:45:11.036Z,4.80
2023-02-05T00:46:11.081Z,5.00
2023-02-05T00:47:11.000Z,4.40
2023-02-05T00:48:11.010Z,6.00
2023-02-05T00:49:10.974Z,4.40
2023-02-05T00:50:10.978Z,4.20
2023-02-05T00:51:10.947Z,5.20
2023-02-05T00:52:10.983Z,5.10
2023-02-05T00:53:10.947Z,4.30
2023-02-05T00:54:10.908Z,4.60
2023-02-05T00:55:10.901Z,4.90
2023-02-05T00:56:10.895Z,753.20
2023-02-05T00:57:10.881Z,897.70
2023-02-05T00:58:10.868Z,1072.70
2023-02-05T00:59:10.849Z,1098.10
2023-02-05T01:00:10.856Z,1133.00
2023-02-05T01:01:10.923Z,1180.40
2023-02-05T01:02:10.843Z,1162.20
2023-02-05T01:03:10.827Z,1154.90
2023-02-05T01:04:10.783Z,1098.80
2023-02-05T01:05:10.781Z,1060.90
2023-02-05T01:06:10.758Z,1071.00
2023-02-05T01:07:10.758Z,1040.80
2023-02-05T01:08:10.740Z,1052.10
2023-02-05T01:09:10.731Z,1002.80
2023-02-05T01:10:10.707Z,995.90
2023-02-05T01:11:10.707Z,946.20
2023-02-05T01:12:10.690Z,922.70
2023-02-05T01:13:10.688Z,1069.30
2023-02-05T01:14:10.661Z,1063.70
2023-02-05T01:15:10.656Z,1008.10
2023-02-05T01:16:10.785Z,1091.00
2023-02-05T01:17:10.627Z,1061.80
2023-02-05T01:18:10.631Z,1070.10
2023-02-05T01:19:10.600Z,902.70
2023-02-05T01:20:10.578Z,694.90
2023-02-05T01:21:10.578Z,362.20
2023-02-05T01:22:10.572Z,276.10
2023-02-05T01:23:10.558Z,338.90
2023-02-05T01:24:10.537Z,285.40
2023-02-05T01:25:10.544Z,308.40
2023-02-05T01:26:10.507Z,236.60
2023-02-05T01:27:10.498Z,145.80
2023-02-05T01:28:10.612Z,14.70
2023-02-05T01:29:10.474Z,8.60
2023-02-05T01:30:10.456Z,9.10
2023-02-05T01:31:10.541Z,208.90
2023-02-05T01:32:10.439Z,731.70
2023-02-05T01:33:10.447Z,985.50
2023-02-05T01:34:10.408Z,1057.40
2023-02-05T01:35:10.404Z,1039.90
2023-02-05T01:36:10.384Z,1056.50
2023-02-05T01:37:10.376Z,949.40
2023-02-05T01:38:10.393Z,904.20
2023-02-05T01:39:10.363Z,821.90
2023-02-05T01:40:10.328Z,745.10
2023-02-05T01:41:10.322Z,367.00
2023-02-05T01:42:10.314Z,183.20
2023-02-05T01:43:10.301Z,67.90
2023-02-05T01:44:10.295Z,219.50
2023-02-05T01:45:10.272Z,231.00
2023-02-05T01:46:10.262Z,121.70
2023-02-05T01:47:10.242Z,18.90
2023-02-05T01:48:10.226Z,21.70
2023-02-05T01:49:10.230Z,7.70
2023-02-05T01:50:10.204Z,4.70
2023-02-05T01:51:10.185Z,4.10
2023-02-05T01:52:10.176Z,4.90
2023-02-05T01:53:10.175Z,4.60
2023-02-05T01:54:10.146Z,5.60
2023-02-05T01:55:10.148Z,4.80
2023-02-05T01:56:10.114Z,4.00
2023-02-05T01:57:10.103Z,4.80
2023-02-05T01:58:10.113Z,5.40
2023-02-05T01:59:10.109Z,3.60
2023-02-05T02:00:10.064Z,6.00
2023-02-05T02:01:10.061Z,4.20
2023-02-05T02:02:10.047Z,4.20
2023-02-05T02:03:10.041Z,3.20
2023-02-05T02:04:10.020Z,3.50
2023-02-05T02:05:10.074Z,3.20
2023-02-05T02:06:09.992Z,4.90
2023-02-05T02:07:10.018Z,4.20
2023-02-05T02:08:09.996Z,3.30
2023-02-05T02:09:09.958Z,4.10
2023-02-05T02:10:09.937Z,4.50
2023-02-05T02:11:09.932Z,4.20
2023-02-05T02:12:09.926Z,3.50
2023-02-05T02:13:09.933Z,4.50
2023-02-05T02:14:09.898Z,3.90
2023-02-05T02:15:09.896Z,3.60
2023-02-05T02:16:09.912Z,3.50
2023-02-05T02:17:09.868Z,4.10
2023-02-05T02:18:09.854Z,6.70
2023-02-05T02:19:09.829Z,3.80
2023-02-05T02:20:09.828Z,4.10
2023-02-05T02:21:09.820Z,4.60
2023-02-05T02:22:09.800Z,3.70
2023-02-05T02:23:09.795Z,4.40
2023-02-05T02:24:09.769Z,3.50
2023-02-05T02:25:09.757Z,4.70
2023-02-05T02:26:09.756Z,5.30
2023-02-05T02:27:09.735Z,3.50
2023-02-05T02:28:09.765Z,4.30
2023-02-05T02:29:09.704Z,3.10
2023-02-05T02:30:09.696Z,3.90
2023-02-05T02:31:09.708Z,3.40
2023-02-05T02:32:09.665Z,4.30
2023-02-05T02:33:09.676Z,4.10
2023-02-05T02:34:09.643Z,5.50
2023-02-05T02:35:09.631Z,3.40
2023-02-05T02:36:09.628Z,3.70
2023-02-05T02:37:09.606Z,3.70
2023-02-05T02:38:09.595Z,5.00
2023-02-05T02:39:09.631Z,5.60
2023-02-05T02:40:09.559Z,3.50
2023-02-05T02:41:09.569Z,3.50
2023-02-05T02:42:09.532Z,4.10
2023-02-05T02:43:09.559Z,5.00
2023-02-05T02:44:09.511Z,5.30
2023-02-05T02:45:09.504Z,3.20
2023-02-05T02:46:09.493Z,3.80
2023-02-05T02:47:09.484Z,5.40
2023-02-05T02:48:09.473Z,3.50
2023-02-05T02:49:09.486Z,4.80
2023-02-05T02:50:09.443Z,4.10
2023-02-05T02:51:09.440Z,3.50
2023-02-05T02:52:09.430Z,3.60
2023-02-05T02:53:09.403Z,3.60
2023-02-05T02:54:09.412Z,3.70
2023-02-05T02:55:09.388Z,4.70
2023-02-05T02:56:09.370Z,3.60
2023-02-05T02:57:09.363Z,3.90
2023-02-05T02:58:09.343Z,3.60
2023-02-05T02:59:09.354Z,4.50
2023-02-05T03:00:09.314Z,2.70
2023-02-05T03:01:09.426Z,4.50
2023-02-05T03:02:09.294Z,2.70
2023-02-05T03:03:09.283Z,4.50
2023-02-05T03:04:09.288Z,2.90
2023-02-05T03:05:09.270Z,3.40
2023-02-05T03:06:09.245Z,3.90
2023-02-05T03:07:09.240Z,3.00
2023-02-05T03:08:09.228Z,3.50
2023-02-05T03:09:09.247Z,2.90
2023-02-05T03:10:09.215Z,10.70
2023-02-05T03:11:09.190Z,4.40
2023-02-05T03:12:09.173Z,5.70
2023-02-05T03:13:09.169Z,3.00
2023-02-05T03:14:09.154Z,4.60
2023-02-05T03:15:09.163Z,10.40
2023-02-05T03:16:09.221Z,3.70
2023-02-05T03:17:09.109Z,4.80
2023-02-05T03:18:09.094Z,3.60
2023-02-05T03:19:09.110Z,4.30
2023-02-05T03:20:09.078Z,3.50
2023-02-05T03:21:09.079Z,4.20
2023-02-05T03:22:09.048Z,4.00
2023-02-05T03:23:09.044Z,3.20
2023-02-05T03:24:09.030Z,3.00
2023-02-05T03:25:09.015Z,2.60
2023-02-05T03:26:09.008Z,3.90
2023-02-05T03:27:08.987Z,4.20
2023-02-05T03:28:08.993Z,4.00
2023-02-05T03:29:08.979Z,2.80
2023-02-05T03:30:08.953Z,2.60
2023-02-05T03:31:08.989Z,4.40
2023-02-05T03:32:08.915Z,2.30
2023-02-05T03:33:08.905Z,3.80
2023-02-05T03:34:08.918Z,4.30
2023-02-05T03:35:08.883Z,3.30
2023-02-05T03:36:08.863Z,3.10
2023-02-05T03:37:08.862Z,2.60
2023-02-05T03:38:08.854Z,3.50
2023-02-05T03:39:08.872Z,3.20
2023-02-05T03:40:08.813Z,4.60
2023-02-05T03:41:08.812Z,140.30
2023-02-05T03:42:08.913Z,584.70
2023-02-05T03:43:08.804Z,664.30
2023-02-05T03:44:08.772Z,838.10
2023-02-05T03:45:08.762Z,789.70
2023-02-05T03:46:08.768Z,881.70
2023-02-05T03:47:08.730Z,947.80
2023-02-05T03:48:08.722Z,941.20
2023-02-05T03:49:08.738Z,951.50
2023-02-05T03:50:08.690Z,720.30
2023-02-05T03:51:08.697Z,896.40
2023-02-05T03:52:08.672Z,690.90
2023-02-05T03:53:08.658Z,582.30
2023-02-05T03:54:08.655Z,536.10
2023-02-05T03:55:08.635Z,305.70
2023-02-05T03:56:08.628Z,173.50
2023-02-05T03:57:08.622Z,213.10
2023-02-05T03:58:08.596Z,104.50
2023-02-05T03:59:08.592Z,132.60
2023-02-05T04:00:08.580Z,555.60
2023-02-05T04:01:08.572Z,69.40
2023-02-05T04:02:08.571Z,339.60
2023-02-05T04:03:08.544Z,93.80
2023-02-05T04:04:08.530Z,4.50
2023-02-05T04:05:08.525Z,37.70
2023-02-05T04:06:08.480Z,227.80
2023-02-05T04:07:08.496Z,291.80
2023-02-05T04:08:08.457Z,81.80
2023-02-05T04:09:08.457Z,407.40
2023-02-05T04:10:08.466Z,489.40
2023-02-05T04:11:08.427Z,120.10
2023-02-05T04:12:08.416Z,33.30
2023-02-05T04:13:08.404Z,58.40
2023-02-05T04:14:08.539Z,45.70
2023-02-05T04:15:08.398Z,154.80
2023-02-05T04:16:08.417Z,47.60
2023-02-05T04:17:08.355Z,15.00
2023-02-05T04:18:08.346Z,3.90
2023-02-05T04:19:08.322Z,23.80
2023-02-05T04:20:08.322Z,5.80
2023-02-05T04:21:08.327Z,4.20
2023-02-05T04:22:08.281Z,4.10
2023-02-05T04:23:08.284Z,3.20
2023-02-05T04:24:08.365Z,4.30
2023-02-05T04:25:08.302Z,5.60
2023-02-05T04:26:08.240Z,3.40
2023-02-05T04:27:08.222Z,2.80
2023-02-05T04:28:08.270Z,4.30
2023-02-05T04:29:08.204Z,3.20
2023-02-05T04:30:08.192Z,3.20
2023-02-05T04:31:08.179Z,5.00
2023-02-05T04:32:08.161Z,18.10
2023-02-05T04:33:08.165Z,205.10
2023-02-05T04:34:08.132Z,170.00
2023-02-05T04:35:08.146Z,750.10
2023-02-05T04:36:08.121Z,866.70
2023-02-05T04:37:08.113Z,777.30
2023-02-05T04:38:08.093Z,696.90
2023-02-05T04:39:08.119Z,680.90
2023-02-05T04:40:08.161Z,774.20
2023-02-05T04:41:08.063Z,496.80
2023-02-05T04:42:08.039Z,110.90
2023-02-05T04:43:08.031Z,293.00
2023-02-05T04:44:08.023Z,904.20
2023-02-05T04:45:08.022Z,336.70
2023-02-05T04:46:08.093Z,302.00
2023-02-05T04:47:07.979Z,8.60
2023-02-05T04:48:07.968Z,10.40
2023-02-05T04:49:07.973Z,3.50
2023-02-05T04:50:07.954Z,3.20
2023-02-05T04:51:07.921Z,3.00
2023-02-05T04:52:07.918Z,3.60
2023-02-05T04:53:07.990Z,3.10
2023-02-05T04:54:07.891Z,4.20
2023-02-05T04:55:07.887Z,3.20
2023-02-05T04:56:07.882Z,3.00
2023-02-05T04:57:07.859Z,5.20
2023-02-05T04:58:07.847Z,3.20
2023-02-05T04:59:07.828Z,4.10
2023-02-05T05:00:07.860Z,3.60
2023-02-05T05:01:07.891Z,3.40
2023-02-05T05:02:07.818Z,3.30
2023-02-05T05:03:07.775Z,3.60
2023-02-05T05:04:07.769Z,3.00
2023-02-05T05:05:07.766Z,4.40
2023-02-05T05:06:07.744Z,3.60
2023-02-05T05:07:07.725Z,4.80
2023-02-05T05:08:07.720Z,2.90
2023-02-05T05:09:07.706Z,3.40
2023-02-05T05:10:07.715Z,4.00
2023-02-05T05:11:07.675Z,371.20
2023-02-05T05:12:07.669Z,566.40
2023-02-05T05:13:07.653Z,347.40
2023-02-05T05:14:07.642Z,543.40
2023-02-05T05:15:07.646Z,878.30
2023-02-05T05:16:07.729Z,902.10
2023-02-05T05:17:07.601Z,608.60
2023-02-05T05:18:07.604Z,538.40
2023-02-05T05:19:07.572Z,70.90
2023-02-05T05:20:07.594Z,287.20
2023-02-05T05:21:07.552Z,286.00
2023-02-05T05:22:07.553Z,5.30
2023-02-05T05:23:07.532Z,93.70
2023-02-05T05:24:07.517Z,17.60
2023-02-05T05:25:07.533Z,6.80
2023-02-05T05:26:07.503Z,64.80
2023-02-05T05:27:07.481Z,156.50
2023-02-05T05:28:07.501Z,81.00
2023-02-05T05:29:07.457Z,145.70
2023-02-05T05:30:07.452Z,261.80
2023-02-05T05:31:07.483Z,14.50
2023-02-05T05:32:07.461Z,3.40
2023-02-05T05:33:07.410Z,4.80
2023-02-05T05:34:07.389Z,4.00
2023-02-05T05:35:07.387Z,4.90
2023-02-05T05:36:07.367Z,3.10
2023-02-05T05:37:07.352Z,2.90
2023-02-05T05:38:07.358Z,3.30
2023-02-05T05:39:07.327Z,2.60
2023-02-05T05:40:07.332Z,2.40
2023-02-05T05:41:07.307Z,5.60
2023-02-05T05:42:07.295Z,4.20
2023-02-05T05:43:07.275Z,3.30
2023-02-05T05:44:07.265Z,3.80
2023-02-05T05:45:07.264Z,4.60
2023-02-05T05:46:07.303Z,5.40
2023-02-05T05:47:07.266Z,70.80
2023-02-05T05:48:07.224Z,110.50
2023-02-05T05:49:07.216Z,307.40
2023-02-05T05:50:07.204Z,105.20
2023-02-05T05:51:07.220Z,172.40
2023-02-05T05:52:07.173Z,72.60
2023-02-05T05:53:07.156Z,313.80
2023-02-05T05:54:07.144Z,326.90
2023-02-05T05:55:07.153Z,7.40
2023-02-05T05:56:07.113Z,32.90
2023-02-05T05:57:07.136Z,6.30
2023-02-05T05:58:07.170Z,69.70
2023-02-05T05:59:07.071Z,81.70
2023-02-05T06:00:07.069Z,124.30
2023-02-05T06:01:07.047Z,627.70
2023-02-05T06:02:07.047Z,749.30
2023-02-05T06:03:07.028Z,479.60
2023-02-05T06:04:07.028Z,147.20
2023-02-05T06:05:07.015Z,563.80
2023-02-05T06:06:07.004Z,805.40
2023-02-05T06:07:07.392Z,915.30
2023-02-05T06:08:06.993Z,935.60
2023-02-05T06:09:06.946Z,903.70
2023-02-05T06:10:06.958Z,881.80
2023-02-05T06:11:06.928Z,922.20
2023-02-05T06:12:06.925Z,813.90
2023-02-05T06:13:06.891Z,706.70
2023-02-05T06:14:06.903Z,555.20
2023-02-05T06:15:07.311Z,818.10
2023-02-05T06:16:06.934Z,938.20
2023-02-05T06:17:06.871Z,939.70
2023-02-05T06:18:06.840Z,959.50
2023-02-05T06:19:06.822Z,905.90
2023-02-05T06:20:06.818Z,947.20
2023-02-05T06:21:06.799Z,903.20
2023-02-05T06:22:06.797Z,880.90
2023-02-05T06:23:06.779Z,902.50
2023-02-05T06:24:06.757Z,818.30
2023-02-05T06:25:06.757Z,815.90
2023-02-05T06:26:06.771Z,849.30
2023-02-05T06:27:06.715Z,900.50
2023-02-05T06:28:06.743Z,829.20
2023-02-05T06:29:06.699Z,918.90
2023-02-05T06:30:06.721Z,911.00
2023-02-05T06:31:06.729Z,922.50
2023-02-05T06:32:06.663Z,900.70
2023-02-05T06:33:06.653Z,857.50
2023-02-05T06:34:06.637Z,860.10
2023-02-05T06:35:06.645Z,910.30
2023-02-05T06:36:06.627Z,867.00
2023-02-05T06:37:06.595Z,856.80
2023-02-05T06:38:06.590Z,880.30
2023-02-05T06:39:06.607Z,748.90
2023-02-05T06:40:06.583Z,732.90
2023-02-05T06:41:06.546Z,671.70
2023-02-05T06:42:06.543Z,763.50
2023-02-05T06:43:06.530Z,924.50
2023-02-05T06:44:06.518Z,890.60
2023-02-05T06:45:06.513Z,912.90
2023-02-05T06:46:06.521Z,878.20
2023-02-05T06:47:06.474Z,731.60
2023-02-05T06:48:06.477Z,743.40
2023-02-05T06:49:06.442Z,801.50
2023-02-05T06:50:06.446Z,760.30
2023-02-05T06:51:06.434Z,775.00
2023-02-05T06:52:06.415Z,739.90
2023-02-05T06:53:06.409Z,706.30
2023-02-05T06:54:06.392Z,719.30
2023-02-05T06:55:06.395Z,672.50
2023-02-05T06:56:06.372Z,761.30
2023-02-05T06:57:06.359Z,837.10
2023-02-05T06:58:06.344Z,786.60
2023-02-05T06:59:06.322Z,732.00
2023-02-05T07:00:06.331Z,812.70
2023-02-05T07:01:06.308Z,731.00
2023-02-05T07:02:06.299Z,769.30
2023-02-05T07:03:06.268Z,706.90
2023-02-05T07:04:06.259Z,759.30
2023-02-05T07:05:06.260Z,784.80
2023-02-05T07:06:06.259Z,783.90
2023-02-05T07:07:06.229Z,774.20
2023-02-05T07:08:06.219Z,692.20
2023-02-05T07:09:06.201Z,728.40
2023-02-05T07:10:06.222Z,767.80
2023-02-05T07:11:06.186Z,783.90
2023-02-05T07:12:06.173Z,792.80
2023-02-05T07:13:06.183Z,855.90
2023-02-05T07:14:06.152Z,964.00
2023-02-05T07:15:06.140Z,995.60
2023-02-05T07:16:06.169Z,902.00
2023-02-05T07:17:06.116Z,778.40
2023-02-05T07:18:06.097Z,776.30
2023-02-05T07:19:06.093Z,786.60
2023-02-05T07:20:06.079Z,877.70
2023-02-05T07:21:06.084Z,937.40
2023-02-05T07:22:06.046Z,954.50
2023-02-05T07:23:06.031Z,933.10
2023-02-05T07:24:06.032Z,943.10
2023-02-05T07:25:06.044Z,963.10
2023-02-05T07:26:05.998Z,973.20
2023-02-05T07:27:05.977Z,960.70
2023-02-05T07:28:05.994Z,958.00
2023-02-05T07:29:05.956Z,961.30
2023-02-05T07:30:05.957Z,971.60
2023-02-05T07:31:06.008Z,977.30
2023-02-05T07:32:06.090Z,959.90
2023-02-05T07:33:05.906Z,873.10
2023-02-05T07:34:05.903Z,886.30
2023-02-05T07:35:05.900Z,894.20
2023-02-05T07:36:05.885Z,888.90
2023-02-05T07:37:05.872Z,911.80
2023-02-05T07:38:05.856Z,890.60
2023-02-05T07:39:05.823Z,917.90
2023-02-05T07:40:05.844Z,918.80
2023-02-05T07:41:05.814Z,910.30
2023-02-05T07:42:05.791Z,910.20
2023-02-05T07:43:05.779Z,922.00
2023-02-05T07:44:05.780Z,870.20
2023-02-05T07:45:05.797Z,873.80
2023-02-05T07:46:05.735Z,896.40
2023-02-05T07:47:05.739Z,902.30
2023-02-05T07:48:05.716Z,907.40
2023-02-05T07:49:05.725Z,872.10
2023-02-05T07:50:05.710Z,922.20
2023-02-05T07:51:05.694Z,1011.80
2023-02-05T07:52:05.663Z,1999.90
2023-02-05T07:53:05.657Z,1999.90
2023-02-05T07:54:05.634Z,850.10
2023-02-05T07:55:05.675Z,1999.90
2023-02-05T07:56:05.611Z,800.80
2023-02-05T07:57:07.026Z,1084.80
2023-02-05T07:58:05.591Z,1124.60
2023-02-05T07:59:05.580Z,1140.90
2023-02-05T08:00:05.569Z,1161.90
2023-02-05T08:01:05.614Z,1143.70
2023-02-05T08:02:05.543Z,1999.90
2023-02-05T08:03:05.530Z,1999.90
2023-02-05T08:04:05.593Z,1999.90
2023-02-05T08:05:05.528Z,1999.90
2023-02-05T08:06:05.488Z,1999.90
2023-02-05T08:07:05.488Z,1999.90
2023-02-05T08:08:05.468Z,1999.90
2023-02-05T08:09:05.457Z,1999.90
2023-02-05T08:10:05.460Z,1999.90
2023-02-05T08:11:05.433Z,1016.40
2023-02-05T08:12:05.409Z,1999.90
2023-02-05T08:13:05.408Z,545.20
2023-02-05T08:14:05.396Z,703.40
2023-02-05T08:15:05.418Z,1999.90
2023-02-05T08:16:05.381Z,1999.90
2023-02-05T08:17:05.367Z,1999.90
2023-02-05T08:18:05.340Z,1999.90
2023-02-05T08:19:05.332Z,1999.90
2023-02-05T08:20:05.361Z,1999.90
2023-02-05T08:21:05.317Z,1999.90
2023-02-05T08:22:05.286Z,1999.90
2023-02-05T08:23:05.292Z,1999.90
2023-02-05T08:24:05.254Z,1999.90
2023-02-05T08:25:05.370Z,1999.90
2023-02-05T08:26:05.242Z,1999.90
2023-02-05T08:27:05.225Z,1999.90
2023-02-05T08:28:05.254Z,1999.90
2023-02-05T08:29:05.211Z,1999.90
2023-02-05T08:30:05.190Z,1999.90
2023-02-05T08:31:05.206Z,1999.90
2023-02-05T08:32:05.166Z,1999.90
2023-02-05T08:33:05.156Z,1999.90
2023-02-05T08:34:05.131Z,1999.90
2023-02-05T08:35:05.146Z,1999.90
2023-02-05T08:36:05.117Z,1999.90
2023-02-05T08:37:05.103Z,1999.90
2023-02-05T08:38:05.110Z,1999.90
2023-02-05T08:39:05.083Z,1999.90
2023-02-05T08:40:05.068Z,1999.90
2023-02-05T08:41:05.048Z,1999.90
2023-02-05T08:42:05.039Z,1999.90
2023-02-05T08:43:05.022Z,1999.90
2023-02-05T08:44:05.008Z,1999.90
2023-02-05T08:45:05.006Z,1999.90
2023-02-05T08:46:04.995Z,1999.90
2023-02-05T08:47:04.969Z,1999.90
2023-02-05T08:48:04.964Z,1999.90
2023-02-05T08:49:04.954Z,1999.90
2023-02-05T08:50:04.952Z,1999.90
2023-02-05T08:51:04.931Z,1999.90
2023-02-05T08:52:04.908Z,1999.90
2023-02-05T08:53:04.899Z,1999.90
2023-02-05T08:54:04.876Z,1999.90
2023-02-05T08:55:04.888Z,1999.90
2023-02-05T08:56:04.863Z,1999.90
2023-02-05T08:57:04.852Z,1999.90
2023-02-05T08:58:04.824Z,1999.90
2023-02-05T08:59:04.825Z,1999.90
2023-02-05T09:00:04.812Z,1999.90
2023-02-05T09:01:04.830Z,1999.90
2023-02-05T09:02:04.779Z,1999.90
2023-02-05T09:03:04.763Z,1999.90
2023-02-05T09:04:04.770Z,1999.90
2023-02-05T09:05:09.248Z,1999.90
2023-02-05T09:06:05.724Z,1999.90
2023-02-05T09:07:04.720Z,1999.90
2023-02-05T09:08:04.704Z,1999.90
2023-02-05T09:09:04.689Z,1999.90
2023-02-05T09:10:04.684Z,1999.90
2023-02-05T09:11:04.690Z,1999.90
2023-02-05T09:12:04.651Z,1999.90
2023-02-05T09:13:04.642Z,1999.90
2023-02-05T09:14:04.625Z,1999.90
2023-02-05T09:15:04.629Z,1999.90
2023-02-05T09:16:04.614Z,1999.90
2023-02-05T09:17:04.603Z,1999.90
2023-02-05T09:18:04.570Z,1999.90
2023-02-05T09:19:04.574Z,1999.90
2023-02-05T09:20:04.551Z,1999.90
2023-02-05T09:21:04.550Z,1999.90
2023-02-05T09:22:04.533Z,1999.90
2023-02-05T09:23:04.510Z,1999.90
2023-02-05T09:24:04.492Z,1999.90
2023-02-05T09:25:04.509Z,1999.90
2023-02-05T09:26:04.492Z,1999.90
2023-02-05T09:27:06.357Z,1999.90
2023-02-05T09:28:04.497Z,1999.90
2023-02-05T09:29:04.446Z,1999.90
2023-02-05T09:30:04.423Z,1999.90
2023-02-05T09:31:04.537Z,1999.90
2023-02-05T09:32:04.408Z,1999.90
2023-02-05T09:33:04.393Z,1999.90
2023-02-05T09:34:04.382Z,1999.90
2023-02-05T09:35:04.363Z,1999.90
2023-02-05T09:36:04.387Z,1999.90
2023-02-05T09:37:04.350Z,1999.90
2023-02-05T09:38:04.332Z,1999.90
2023-02-05T09:39:16.843Z,1999.90
2023-02-05T09:40:20.409Z,1999.90
2023-02-05T09:41:05.310Z,1999.90
2023-02-05T09:42:04.296Z,1999.90
2023-02-05T09:43:04.274Z,1999.90
2023-02-05T09:44:04.252Z,1999.90
2023-02-05T09:45:04.249Z,1999.90
2023-02-05T09:46:04.287Z,1999.90
2023-02-05T09:47:04.208Z,1999.90
2023-02-05T09:48:04.203Z,1999.90
2023-02-05T09:49:04.209Z,1999.90
2023-02-05T09:50:04.209Z,1999.90
2023-02-05T09:51:04.183Z,1999.90
2023-02-05T09:52:04.140Z,1999.90
2023-02-05T09:53:04.139Z,1999.90
2023-02-05T09:54:04.118Z,1999.90
2023-02-05T09:55:04.121Z,1999.90
2023-02-05T09:56:04.103Z,1999.90
2023-02-05T09:57:04.091Z,1999.90
2023-02-05T09:58:04.063Z,1999.90
2023-02-05T09:59:04.070Z,1999.90
2023-02-05T10:00:04.045Z,1999.90
2023-02-05T10:01:04.085Z,1999.90
2023-02-05T10:02:05.877Z,1999.90
2023-02-05T10:03:04.002Z,1999.90
2023-02-05T10:04:04.048Z,1999.90
2023-02-05T10:05:03.982Z,1999.90
2023-02-05T10:06:03.980Z,1999.90
2023-02-05T10:07:03.981Z,1999.90
2023-02-05T10:08:03.953Z,1999.90
2023-02-05T10:09:03.939Z,1999.90
2023-02-05T10:10:03.916Z,1999.90
2023-02-05T10:11:03.919Z,1999.90
2023-02-05T10:12:03.891Z,1999.90
2023-02-05T10:13:03.877Z,1999.90
2023-02-05T10:14:03.848Z,1999.90
2023-02-05T10:15:04.029Z,1999.90
2023-02-05T10:16:03.879Z,1999.90
2023-02-05T10:17:03.814Z,1999.90
2023-02-05T10:18:03.807Z,1999.90
2023-02-05T10:19:03.797Z,1401.00
2023-02-05T10:20:04.138Z,1172.10
2023-02-05T10:21:03.790Z,1246.80
2023-02-05T10:22:03.794Z,1413.50
2023-02-05T10:23:03.747Z,1381.80
2023-02-05T10:24:03.726Z,1149.00
2023-02-05T10:25:03.721Z,38.00
2023-02-05T10:26:03.707Z,9.20
2023-02-05T10:27:03.700Z,9.90
2023-02-05T10:28:03.716Z,7.80
2023-02-05T10:29:03.678Z,8.40
2023-02-05T10:30:03.663Z,7.50
2023-02-05T10:31:03.760Z,7.10
2023-02-05T10:32:03.640Z,6.00
2023-02-05T10:33:03.627Z,7.40
2023-02-05T10:34:03.597Z,6.40
2023-02-05T10:35:03.607Z,6.20
2023-02-05T10:36:03.580Z,6.50
2023-02-05T10:37:03.575Z,5.60
2023-02-05T10:38:04.707Z,6.40
2023-02-05T10:39:03.545Z,6.80
2023-02-05T10:40:03.528Z,5.50
2023-02-05T10:41:03.522Z,5.60
2023-02-05T10:42:03.523Z,7.10
2023-02-05T10:43:03.492Z,6.70
2023-02-05T10:44:03.475Z,7.10
2023-02-05T10:45:03.462Z,6.10
2023-02-05T10:46:03.479Z,5.80
2023-02-05T10:47:03.443Z,6.50
2023-02-05T10:48:03.410Z,8.70
2023-02-05T10:49:03.410Z,6.50
2023-02-05T10:50:03.389Z,7.70
2023-02-05T10:51:03.441Z,7.30
2023-02-05T10:52:03.388Z,7.50
2023-02-05T10:53:03.349Z,8.00
2023-02-05T10:54:03.335Z,6.40
2023-02-05T10:55:03.341Z,6.70
2023-02-05T10:56:03.324Z,6.90
2023-02-05T10:57:03.316Z,6.20
2023-02-05T10:58:03.341Z,6.50
2023-02-05T10:59:03.280Z,6.10
2023-02-05T11:00:03.279Z,6.40
2023-02-05T11:01:03.255Z,6.30
2023-02-05T11:02:03.266Z,6.70
2023-02-05T11:03:03.301Z,7.10
2023-02-05T11:04:03.209Z,6.20
2023-02-05T11:05:03.198Z,6.50
2023-02-05T11:06:03.191Z,6.10
2023-02-05T11:07:03.188Z,6.90
2023-02-05T11:08:03.163Z,5.10
2023-02-05T11:09:03.168Z,6.80
2023-02-05T11:10:03.144Z,6.80
2023-02-05T11:11:03.143Z,6.50
2023-02-05T11:12:03.141Z,6.30
2023-02-05T11:13:03.095Z,7.20
2023-02-05T11:14:03.081Z,6.40
2023-02-05T11:15:03.080Z,6.80
2023-02-05T11:16:03.142Z,7.50
2023-02-05T11:17:03.053Z,7.50
2023-02-05T11:18:03.043Z,6.70
2023-02-05T11:19:03.447Z,9.20
2023-02-05T11:20:03.023Z,6.90
2023-02-05T11:21:03.023Z,6.70
2023-02-05T11:22:02.997Z,7.00
2023-02-05T11:23:03.001Z,7.20
2023-02-05T11:24:02.953Z,7.00
2023-02-05T11:25:02.944Z,6.90
2023-02-05T11:26:02.944Z,7.60
2023-02-05T11:27:02.990Z,6.00
2023-02-05T11:28:03.199Z,7.40
2023-02-05T11:29:02.903Z,7.00
2023-02-05T11:30:02.895Z,6.60
2023-02-05T11:31:02.998Z,6.50
2023-02-05T11:32:02.947Z,5.90
2023-02-05T11:33:02.849Z,10.10
2023-02-05T11:34:02.866Z,6.60
2023-02-05T11:35:02.834Z,7.20
2023-02-05T11:36:02.819Z,6.90
2023-02-05T11:37:02.808Z,5.90
2023-02-05T11:38:02.785Z,6.60
2023-02-05T11:39:02.767Z,6.80
2023-02-05T11:40:02.774Z,6.90
2023-02-05T11:41:02.761Z,9.10
2023-02-05T11:42:02.738Z,6.70
2023-02-05T11:43:02.725Z,6.90
2023-02-05T11:44:02.696Z,6.80
2023-02-05T11:45:02.701Z,5.60
2023-02-05T11:46:02.670Z,6.70
2023-02-05T11:47:02.681Z,7.70
2023-02-05T11:48:02.674Z,5.50
2023-02-05T11:49:02.651Z,6.40
2023-02-05T11:50:02.627Z,6.90
2023-02-05T11:51:02.616Z,6.70
2023-02-05T11:52:02.660Z,6.60
2023-02-05T11:53:02.593Z,4.90
2023-02-05T11:54:02.591Z,6.70
2023-02-05T11:55:02.579Z,5.40
2023-02-05T11:56:02.549Z,5.80
2023-02-05T11:57:02.546Z,5.50
2023-02-05T11:58:02.553Z,6.10
2023-02-05T11:59:02.525Z,5.30
2023-02-05T12:00:02.503Z,6.40
2023-02-05T12:01:02.499Z,6.40
2023-02-05T12:02:02.559Z,5.60
2023-02-05T12:03:02.579Z,5.80
2023-02-05T12:04:02.494Z,5.20
2023-02-05T12:05:02.445Z,6.70
2023-02-05T12:06:02.427Z,6.60
2023-02-05T12:07:02.408Z,5.40
2023-02-05T12:08:02.415Z,5.60
2023-02-05T12:09:02.397Z,5.30
2023-02-05T12:10:02.379Z,4.60
2023-02-05T12:11:02.366Z,5.50
2023-02-05T12:12:02.355Z,6.50
2023-02-05T12:13:02.344Z,5.80
2023-02-05T12:14:02.325Z,7.50
2023-02-05T12:15:02.328Z,5.60
2023-02-05T12:16:02.325Z,6.50
2023-02-05T12:17:02.285Z,6.60
2023-02-05T12:18:02.304Z,7.10
2023-02-05T12:19:02.272Z,5.80
2023-02-05T12:20:02.252Z,7.40
2023-02-05T12:21:02.238Z,59.30
2023-02-05T12:22:02.236Z,17.50
2023-02-05T12:23:02.236Z,11.60
2023-02-05T12:24:02.215Z,6.30
2023-02-05T12:25:02.197Z,6.80
2023-02-05T12:26:02.189Z,5.60
2023-02-05T12:27:02.163Z,6.20
2023-02-05T12:28:02.191Z,6.30
2023-02-05T12:29:02.146Z,5.90
2023-02-05T12:30:02.121Z,5.50
2023-02-05T12:31:02.110Z,7.60
2023-02-05T12:32:02.105Z,6.40
2023-02-05T12:33:02.089Z,6.90
2023-02-05T12:34:02.105Z,5.00
2023-02-05T12:35:02.056Z,6.40
2023-02-05T12:36:02.058Z,6.00
2023-02-05T12:37:02.035Z,5.30
2023-02-05T12:38:02.025Z,5.80
2023-02-05T12:39:03.338Z,6.20
2023-02-05T12:40:02.023Z,5.50
2023-02-05T12:41:01.974Z,6.70
2023-02-05T12:42:01.968Z,5.40
2023-02-05T12:43:01.983Z,6.40
2023-02-05T12:44:01.943Z,4.70
2023-02-05T12:45:01.929Z,5.50
2023-02-05T12:46:01.931Z,5.90